createdAt,value
2022-08-19T00:00:23.050Z,10.95
2022-08-19T00:02:50.299Z,11.40
2022-08-19T00:05:21.135Z,11.75
2022-08-19T00:07:51.429Z,11.07
2022-08-19T00:10:21.573Z,10.90
2022-08-19T00:12:52.174Z,11.93
2022-08-19T00:15:21.238Z,10.82
2022-08-19T00:17:53.625Z,10.73
2022-08-19T00:20:25.618Z,10.35
2022-08-19T00:22:52.931Z,10.23
2022-08-19T00:25:30.193Z,10.15
2022-08-19T00:27:57.890Z,10.75
2022-08-19T00:30:24.752Z,11.48
2022-08-19T00:32:51.582Z,11.02
2022-08-19T00:35:19.218Z,11.32
2022-08-19T00:37:52.437Z,11.05
2022-08-19T00:40:20.219Z,11.02
2022-08-19T00:42:47.389Z,11.93
2022-08-19T00:45:21.619Z,11.10
2022-08-19T00:47:48.338Z,10.98
2022-08-19T00:50:19.874Z,11.77
2022-08-19T00:52:51.656Z,11.20
2022-08-19T00:55:28.918Z,11.80
2022-08-19T00:58:01.874Z,11.50
2022-08-19T01:00:30.792Z,11.38
2022-08-19T01:02:57.578Z,12.40
2022-08-19T01:05:30.801Z,11.75
2022-08-19T01:08:03.273Z,11.45
2022-08-19T01:10:37.059Z,12.23
2022-08-19T01:13:04.866Z,11.77
2022-08-19T01:15:36.257Z,13.23
2022-08-19T01:18:11.873Z,10.97
2022-08-19T01:20:42.241Z,11.73
2022-08-19T01:23:09.740Z,11.82
2022-08-19T01:25:45.008Z,12.43
2022-08-19T01:28:40.040Z,11.45
2022-08-19T01:31:26.425Z,11.65
2022-08-19T01:33:58.411Z,11.75
2022-08-19T01:36:53.161Z,11.23
2022-08-19T01:39:25.164Z,11.65
2022-08-19T01:41:55.229Z,12.38
2022-08-19T01:44:24.752Z,12.50
2022-08-19T01:46:52.459Z,13.07
2022-08-19T01:49:21.679Z,15.32
2022-08-19T01:51:53.053Z,14.15
2022-08-19T01:54:27.896Z,16.23
2022-08-19T01:57:04.583Z,14.13
2022-08-19T01:59:32.694Z,12.65
2022-08-19T02:01:59.408Z,13.63
2022-08-19T02:04:28.446Z,13.55
2022-08-19T02:06:57.960Z,13.68
2022-08-19T02:09:24.655Z,15.55
2022-08-19T02:11:51.526Z,13.75
2022-08-19T02:14:20.828Z,14.38
2022-08-19T02:16:47.541Z,14.98
2022-08-19T02:19:16.354Z,16.75
2022-08-19T02:21:45.582Z,16.35
2022-08-19T02:24:13.376Z,18.50
2022-08-19T02:26:43.568Z,21.13
2022-08-19T02:29:13.411Z,19.73
2022-08-19T02:31:41.675Z,23.42
2022-08-19T02:34:10.853Z,28.10
2022-08-19T02:36:37.776Z,26.45
2022-08-19T02:39:14.408Z,23.77
2022-08-19T02:41:43.191Z,28.88
2022-08-19T02:44:22.884Z,30.48
2022-08-19T02:46:57.926Z,29.70
2022-08-19T02:49:35.129Z,31.73
2022-08-19T02:52:02.012Z,27.55
2022-08-19T02:54:29.461Z,31.20
2022-08-19T02:57:00.480Z,29.42
2022-08-19T02:59:30.290Z,29.00
2022-08-19T03:01:57.277Z,29.10
2022-08-19T03:04:27.521Z,29.52
2022-08-19T03:07:10.602Z,30.17
2022-08-19T03:09:38.628Z,30.90
2022-08-19T03:12:08.596Z,28.38
2022-08-19T03:14:39.870Z,30.80
2022-08-19T03:17:07.491Z,29.67
2022-08-19T03:19:41.001Z,27.75
2022-08-19T03:22:10.581Z,27.27
2022-08-19T03:24:38.292Z,28.30
2022-08-19T03:27:06.201Z,28.20
2022-08-19T03:29:43.021Z,29.42
2022-08-19T03:32:10.368Z,29.52
2022-08-19T03:34:57.899Z,27.95
2022-08-19T03:37:24.549Z,27.95
2022-08-19T03:39:52.625Z,29.23
2022-08-19T03:42:38.813Z,28.02
2022-08-19T03:45:13.886Z,27.20
2022-08-19T03:47:40.628Z,30.92
2022-08-19T03:50:07.767Z,29.85
2022-08-19T03:52:35.603Z,30.73
2022-08-19T03:55:05.497Z,30.98
2022-08-19T03:57:34.021Z,33.05
2022-08-19T04:00:12.531Z,31.17
2022-08-19T04:02:42.801Z,30.23
2022-08-19T04:07:54.993Z,29.92
2022-08-19T04:10:21.707Z,30.92
2022-08-19T04:12:50.519Z,32.15
2022-08-19T04:15:20.455Z,33.88
2022-08-19T04:17:47.543Z,34.67
2022-08-19T04:20:18.316Z,29.98
2022-08-19T04:22:47.967Z,29.98
2022-08-19T04:25:19.504Z,31.15
2022-08-19T04:27:47.362Z,31.43
2022-08-19T04:30:15.389Z,29.15
2022-08-19T04:32:44.498Z,30.98
2022-08-19T04:35:17.484Z,30.67
2022-08-19T04:37:46.158Z,33.58
2022-08-19T04:40:31.354Z,30.42
2022-08-19T04:42:58.134Z,29.67
2022-08-19T04:45:24.910Z,27.65
2022-08-19T04:47:58.228Z,28.08
2022-08-19T04:50:27.661Z,29.58
2022-08-19T04:52:56.256Z,28.25
2022-08-19T04:55:22.977Z,27.05
2022-08-19T04:57:49.852Z,29.88
2022-08-19T05:00:16.616Z,27.30
2022-08-19T05:02:43.925Z,28.38
2022-08-19T05:05:10.811Z,25.92
2022-08-19T05:07:37.771Z,29.00
2022-08-19T05:10:06.915Z,26.67
2022-08-19T05:12:33.920Z,26.08
2022-08-19T05:15:01.713Z,26.20
2022-08-19T05:17:32.408Z,27.38
2022-08-19T05:20:20.608Z,29.40
2022-08-19T05:22:48.592Z,27.35
2022-08-19T05:25:19.927Z,26.83
2022-08-19T05:27:46.940Z,26.42
2022-08-19T05:30:14.433Z,28.38
2022-08-19T05:32:41.758Z,31.88
2022-08-19T05:35:09.210Z,28.35
2022-08-19T05:37:35.981Z,32.05
2022-08-19T05:40:04.524Z,32.47
2022-08-19T05:42:31.522Z,29.52
2022-08-19T05:44:58.350Z,30.65
2022-08-19T05:47:25.073Z,32.63
2022-08-19T05:49:51.963Z,33.78
2022-08-19T05:52:19.316Z,33.95
2022-08-19T05:54:51.122Z,31.98
2022-08-19T05:57:19.737Z,30.23
2022-08-19T05:59:52.779Z,31.90
2022-08-19T06:02:20.503Z,32.10
2022-08-19T06:04:47.325Z,33.33
2022-08-19T06:07:14.039Z,34.90
2022-08-19T06:09:59.113Z,35.22
2022-08-19T06:12:35.880Z,33.30
2022-08-19T06:15:06.543Z,33.67
2022-08-19T06:17:35.645Z,34.85
2022-08-19T06:20:04.946Z,37.63
2022-08-19T06:22:31.668Z,38.55
2022-08-19T06:24:58.486Z,35.20
2022-08-19T06:27:25.421Z,38.53
2022-08-19T06:29:52.122Z,40.85
2022-08-19T06:32:20.042Z,42.30
2022-08-19T06:34:47.345Z,44.28
2022-08-19T06:37:14.411Z,40.33
2022-08-19T06:39:43.365Z,39.72
2022-08-19T06:42:12.936Z,41.55
2022-08-19T06:44:43.534Z,39.10
2022-08-19T06:47:23.822Z,38.47
2022-08-19T06:50:03.816Z,42.88
2022-08-19T06:52:34.812Z,43.60
2022-08-19T06:55:05.890Z,41.75
2022-08-19T06:57:34.078Z,38.20
2022-08-19T07:00:03.631Z,40.25
2022-08-19T07:02:30.352Z,40.88
2022-08-19T07:04:59.063Z,35.72
2022-08-19T07:07:29.122Z,37.63
2022-08-19T07:09:59.996Z,41.33
2022-08-19T07:12:33.725Z,41.40
2022-08-19T07:15:04.210Z,38.88
2022-08-19T07:17:31.024Z,41.58
2022-08-19T07:19:57.850Z,41.60
2022-08-19T07:22:32.587Z,42.40
2022-08-19T07:24:59.281Z,40.22
2022-08-19T07:27:26.247Z,40.40
2022-08-19T07:29:54.471Z,40.65
2022-08-19T07:32:23.438Z,38.88
2022-08-19T07:34:50.183Z,42.88
2022-08-19T07:37:17.233Z,38.85
2022-08-19T07:39:45.221Z,39.50
2022-08-19T07:42:13.332Z,40.72
2022-08-19T07:44:47.838Z,46.33
2022-08-19T07:47:47.447Z,38.97
2022-08-19T07:50:08.224Z,39.40
2022-08-19T07:52:35.624Z,38.60
2022-08-19T07:55:04.772Z,38.30
2022-08-19T07:57:31.630Z,35.95
2022-08-19T07:59:58.359Z,33.58
2022-08-19T08:02:25.062Z,27.45
2022-08-19T08:05:10.648Z,30.60
2022-08-19T08:07:56.117Z,25.55
2022-08-19T08:10:24.146Z,24.05
2022-08-19T08:13:08.785Z,24.35
2022-08-19T08:15:42.554Z,20.05
2022-08-19T08:18:10.787Z,19.85
2022-08-19T08:20:37.629Z,19.67
2022-08-19T08:23:22.999Z,21.23
2022-08-19T08:25:50.435Z,24.77
2022-08-19T08:28:18.397Z,22.95
2022-08-19T08:30:48.233Z,19.33
2022-08-19T08:33:28.529Z,18.27
2022-08-19T08:36:08.340Z,15.85
2022-08-19T08:38:39.725Z,17.48
2022-08-19T08:41:20.414Z,16.88
2022-08-19T08:43:51.941Z,20.30
2022-08-19T08:46:31.599Z,19.97
2022-08-19T08:49:21.377Z,15.63
2022-08-19T08:51:59.987Z,14.65
2022-08-19T08:54:55.260Z,16.35
2022-08-19T08:57:37.669Z,13.80
2022-08-19T09:00:17.174Z,12.13
2022-08-19T09:02:45.312Z,10.15
2022-08-19T09:05:22.385Z,12.82
2022-08-19T09:08:22.030Z,13.77
2022-08-19T09:10:55.082Z,14.15
2022-08-19T09:13:34.757Z,14.20
2022-08-19T09:16:12.313Z,12.90
2022-08-19T09:18:46.865Z,15.60
2022-08-19T09:21:14.942Z,14.20
2022-08-19T09:23:42.067Z,17.50
2022-08-19T09:26:16.425Z,17.65
2022-08-19T09:28:48.288Z,15.98
2022-08-19T09:31:18.979Z,15.32
2022-08-19T09:33:46.220Z,19.98
2022-08-19T09:36:34.858Z,18.63
2022-08-19T09:39:02.214Z,19.58
2022-08-19T09:41:30.976Z,17.05
2022-08-19T09:43:59.512Z,19.75
2022-08-19T09:46:29.854Z,18.45
2022-08-19T09:49:03.071Z,17.02
2022-08-19T09:51:33.955Z,20.50
2022-08-19T09:54:04.791Z,19.20
2022-08-19T09:56:35.215Z,18.63
2022-08-19T09:59:04.627Z,18.52
2022-08-19T10:01:32.844Z,18.33
2022-08-19T10:04:01.071Z,23.90
2022-08-19T10:06:45.784Z,15.60
2022-08-19T10:09:15.059Z,19.23
2022-08-19T10:11:51.228Z,19.55
2022-08-19T10:14:23.286Z,15.68
2022-08-19T10:16:51.887Z,17.88
2022-08-19T10:19:25.587Z,16.98
2022-08-19T10:21:54.410Z,17.63
2022-08-19T10:24:28.416Z,16.35
2022-08-19T10:26:57.255Z,15.38
2022-08-19T10:29:31.835Z,15.27
2022-08-19T10:32:09.448Z,16.48
2022-08-19T10:34:37.794Z,13.48
2022-08-19T10:37:28.952Z,13.02
2022-08-19T10:39:58.189Z,14.13
2022-08-19T10:42:25.006Z,16.45
2022-08-19T10:44:52.196Z,13.50
2022-08-19T10:47:25.883Z,10.90
2022-08-19T10:50:12.919Z,12.18
2022-08-19T10:52:50.134Z,10.52
2022-08-19T10:55:41.154Z,10.65
2022-08-19T10:58:17.869Z,14.05
2022-08-19T11:00:51.684Z,12.90
2022-08-19T11:03:21.113Z,13.25
2022-08-19T11:05:49.748Z,9.82
2022-08-19T11:08:23.115Z,12.85
2022-08-19T11:10:54.395Z,10.43
2022-08-19T11:13:21.092Z,10.32
2022-08-19T11:15:48.258Z,12.27
2022-08-19T11:18:15.033Z,9.35
2022-08-19T11:20:42.249Z,8.90
2022-08-19T11:23:08.994Z,11.02
2022-08-19T11:25:36.204Z,8.20
2022-08-19T11:28:03.158Z,10.43
2022-08-19T11:30:31.873Z,7.75
2022-08-19T11:32:58.601Z,8.38
2022-08-19T11:35:25.262Z,9.65
2022-08-19T11:37:52.049Z,9.30
2022-08-19T11:40:19.075Z,8.75
2022-08-19T11:42:57.908Z,8.15
2022-08-19T11:45:26.498Z,6.60
2022-08-19T11:47:54.180Z,10.73
2022-08-19T11:50:21.646Z,6.35
2022-08-19T11:52:50.496Z,15.63
2022-08-19T11:55:17.300Z,5.15
2022-08-19T11:57:44.509Z,5.80
2022-08-19T12:00:15.153Z,7.20
2022-08-19T12:02:41.997Z,5.57
2022-08-19T12:05:12.194Z,6.80
2022-08-19T12:07:40.550Z,6.60
2022-08-19T12:10:07.546Z,5.43
2022-08-19T12:12:35.685Z,5.55
2022-08-19T12:15:03.190Z,5.05
2022-08-19T12:17:31.751Z,5.03
2022-08-19T12:19:58.624Z,4.90
2022-08-19T12:22:25.352Z,5.15
2022-08-19T12:24:54.140Z,3.55
2022-08-19T12:27:32.315Z,8.30
2022-08-19T12:30:10.184Z,4.78
2022-08-19T12:32:36.909Z,5.85
2022-08-19T12:35:09.029Z,4.75
2022-08-19T12:37:35.902Z,4.53
2022-08-19T12:40:04.138Z,3.60
2022-08-19T12:42:31.368Z,3.92
2022-08-19T12:44:58.133Z,4.15
2022-08-19T12:47:26.910Z,6.55
2022-08-19T12:50:06.910Z,3.22
2022-08-19T12:52:33.800Z,3.53
2022-08-19T12:55:02.955Z,6.63
2022-08-19T12:57:31.965Z,3.25
2022-08-19T13:00:01.810Z,3.95
2022-08-19T13:02:33.048Z,3.42
2022-08-19T13:05:12.775Z,6.05
2022-08-19T13:07:40.453Z,4.03
2022-08-19T13:10:12.731Z,4.60
2022-08-19T13:12:40.170Z,4.65
2022-08-19T13:15:10.891Z,6.30
2022-08-19T13:17:39.843Z,4.00
2022-08-19T13:20:09.303Z,4.07
2022-08-19T13:22:38.312Z,3.30
2022-08-19T13:25:06.688Z,5.68
2022-08-19T13:27:33.630Z,3.80
2022-08-19T13:30:27.584Z,5.03
2022-08-19T13:33:17.025Z,4.63
2022-08-19T13:35:53.867Z,5.60
2022-08-19T13:38:22.169Z,5.47
2022-08-19T13:40:51.248Z,3.33
2022-08-19T13:43:23.823Z,6.07
2022-08-19T13:46:01.341Z,6.38
2022-08-19T13:48:28.199Z,6.07
2022-08-19T13:50:57.420Z,2.63
2022-08-19T13:53:26.193Z,3.58
2022-08-19T13:55:54.452Z,2.95
2022-08-19T13:58:26.287Z,2.60
2022-08-19T14:03:26.418Z,3.85
2022-08-19T14:05:53.197Z,2.72
2022-08-19T14:08:24.426Z,16.50
2022-08-19T14:10:51.228Z,4.70
2022-08-19T14:13:25.685Z,3.53
2022-08-19T14:15:55.468Z,3.67
2022-08-19T14:18:22.413Z,3.65
2022-08-19T14:20:53.563Z,4.45
2022-08-19T14:23:20.927Z,4.35
2022-08-19T14:25:47.781Z,5.05
2022-08-19T14:28:14.577Z,4.20
2022-08-19T14:30:41.349Z,3.53
2022-08-19T14:33:09.350Z,4.47
2022-08-19T14:35:36.780Z,3.22
2022-08-19T14:38:15.364Z,4.45
2022-08-19T14:40:42.954Z,2.30
2022-08-19T14:43:11.252Z,2.10
2022-08-19T14:45:40.843Z,1.98
2022-08-19T14:48:18.919Z,1.80
2022-08-19T14:50:46.378Z,2.28
2022-08-19T14:53:13.285Z,2.83
2022-08-19T14:55:47.636Z,2.65
2022-08-19T14:58:29.087Z,2.28
2022-08-19T15:00:59.979Z,1.80
2022-08-19T15:03:26.901Z,2.15
2022-08-19T15:05:53.760Z,2.63
2022-08-19T15:08:24.402Z,1.80
2022-08-19T15:10:51.666Z,2.42
2022-08-19T15:13:18.671Z,3.20
2022-08-19T15:15:46.299Z,2.05
2022-08-19T15:18:13.911Z,1.95
2022-08-19T15:20:42.220Z,3.22
2022-08-19T15:23:09.153Z,2.25
2022-08-19T15:25:36.544Z,3.00
2022-08-19T15:28:04.215Z,2.13
2022-08-19T15:30:31.216Z,2.63
2022-08-19T15:32:59.008Z,2.40
2022-08-19T15:35:26.284Z,3.17
2022-08-19T15:37:54.254Z,4.10
2022-08-19T15:40:22.860Z,1.90
2022-08-19T15:42:50.593Z,2.35
2022-08-19T15:45:19.609Z,1.75
2022-08-19T15:47:46.707Z,1.70
2022-08-19T15:50:18.265Z,1.85
2022-08-19T15:52:53.875Z,1.63
2022-08-19T15:55:33.391Z,1.60
2022-08-19T15:58:27.885Z,2.30
2022-08-19T16:01:26.999Z,3.83
2022-08-19T16:04:14.687Z,1.95
2022-08-19T16:06:49.250Z,1.90
2022-08-19T16:09:17.407Z,2.78
2022-08-19T16:11:46.199Z,2.00
2022-08-19T16:14:18.481Z,2.35
2022-08-19T16:16:47.122Z,1.77
2022-08-19T16:19:16.585Z,2.45
2022-08-19T16:21:49.593Z,2.17
2022-08-19T16:24:19.425Z,2.60
2022-08-19T16:26:50.207Z,2.70
2022-08-19T16:29:27.646Z,2.50
2022-08-19T16:32:03.641Z,2.47
2022-08-19T16:34:30.885Z,2.13
2022-08-19T16:36:58.029Z,1.80
2022-08-19T16:39:24.745Z,2.88
2022-08-19T16:41:51.706Z,2.70
2022-08-19T16:44:20.598Z,2.35
2022-08-19T16:46:54.807Z,1.92
2022-08-19T16:49:53.589Z,3.85
2022-08-19T16:52:16.988Z,3.90
2022-08-19T16:54:44.615Z,2.47
2022-08-19T16:57:12.776Z,2.97
2022-08-19T16:59:48.134Z,2.70
2022-08-19T17:02:22.409Z,2.35
2022-08-19T17:04:57.612Z,2.38
2022-08-19T17:07:28.585Z,3.08
2022-08-19T17:09:56.433Z,2.63
2022-08-19T17:12:31.665Z,2.40
2022-08-19T17:15:00.617Z,2.50
2022-08-19T17:17:29.294Z,2.22
2022-08-19T17:19:56.990Z,2.88
2022-08-19T17:22:23.981Z,6.82
2022-08-19T17:24:50.635Z,2.60
2022-08-19T17:27:19.578Z,2.83
2022-08-19T17:29:47.132Z,3.65
2022-08-19T17:32:15.248Z,3.20
2022-08-19T17:34:41.990Z,2.08
2022-08-19T17:37:08.750Z,2.90
2022-08-19T17:39:39.573Z,2.15
2022-08-19T17:42:08.228Z,4.70
2022-08-19T17:44:36.534Z,2.17
2022-08-19T17:47:04.211Z,2.05
2022-08-19T17:49:33.268Z,2.50
2022-08-19T17:52:06.158Z,2.38
2022-08-19T17:54:38.449Z,2.70
2022-08-19T17:57:08.360Z,3.53
2022-08-19T17:59:37.279Z,2.53
2022-08-19T18:02:06.988Z,3.72
2022-08-19T18:04:38.197Z,4.13
2022-08-19T18:07:08.196Z,2.78
2022-08-19T18:09:41.475Z,3.28
2022-08-19T18:12:13.878Z,2.60
2022-08-19T18:14:45.267Z,3.40
2022-08-19T18:17:20.852Z,5.55
2022-08-19T18:19:50.038Z,2.47
2022-08-19T18:22:27.624Z,2.88
2022-08-19T18:24:59.883Z,1.88
2022-08-19T18:27:29.266Z,2.10
2022-08-19T18:30:00.922Z,1.88
2022-08-19T18:32:33.774Z,1.52
2022-08-19T18:35:02.244Z,1.98
2022-08-19T18:37:29.436Z,1.50
2022-08-19T18:40:15.029Z,1.80
2022-08-19T18:43:02.297Z,2.22
2022-08-19T18:45:48.529Z,1.75
2022-08-19T18:48:39.041Z,1.80
2022-08-19T18:51:10.184Z,2.10
2022-08-19T18:53:44.236Z,2.33
2022-08-19T18:56:14.028Z,1.60
2022-08-19T18:58:47.830Z,3.85
2022-08-19T19:01:18.730Z,2.85
2022-08-19T19:03:53.096Z,2.00
2022-08-19T19:06:24.450Z,3.50
2022-08-19T19:08:52.715Z,1.60
2022-08-19T19:11:29.690Z,1.95
2022-08-19T19:13:59.323Z,1.85
2022-08-19T19:16:29.244Z,4.15
2022-08-19T19:19:00.732Z,2.30
2022-08-19T19:21:30.856Z,2.28
2022-08-19T19:24:03.293Z,2.00
2022-08-19T19:26:32.470Z,1.85
2022-08-19T19:28:59.703Z,1.40
2022-08-19T19:31:29.157Z,2.35
2022-08-19T19:34:02.276Z,1.70
2022-08-19T19:36:31.798Z,1.83
2022-08-19T19:39:02.774Z,1.52
2022-08-19T19:44:32.457Z,1.40
2022-08-19T19:47:01.482Z,1.23
2022-08-19T19:49:33.476Z,2.25
2022-08-19T19:52:03.076Z,1.20
2022-08-19T19:54:29.793Z,3.50
2022-08-19T19:56:56.474Z,1.35
2022-08-19T19:59:25.502Z,1.42
2022-08-19T20:01:55.139Z,2.38
2022-08-19T20:06:55.682Z,2.08
2022-08-19T20:09:22.377Z,3.58
2022-08-19T20:11:53.588Z,3.63
2022-08-19T20:14:35.692Z,2.30
2022-08-19T20:17:03.100Z,1.65
2022-08-19T20:19:53.811Z,1.80
2022-08-19T20:22:23.274Z,2.25
2022-08-19T20:24:54.725Z,2.45
2022-08-19T20:27:25.082Z,3.67
2022-08-19T20:29:53.228Z,1.95
2022-08-19T20:32:20.093Z,2.17
2022-08-19T20:34:49.715Z,2.08
2022-08-19T20:37:18.302Z,2.22
2022-08-19T20:39:44.981Z,1.98
2022-08-19T20:42:14.461Z,2.08
2022-08-19T20:44:43.753Z,2.80
2022-08-19T20:47:10.466Z,2.63
2022-08-19T20:49:37.163Z,2.65
2022-08-19T20:52:07.903Z,1.95
2022-08-19T20:54:42.040Z,3.55
2022-08-19T20:57:11.508Z,2.78
2022-08-19T20:59:45.976Z,2.00
2022-08-19T21:02:14.766Z,2.53
2022-08-19T21:04:41.497Z,2.60
2022-08-19T21:07:08.802Z,3.53
2022-08-19T21:09:40.135Z,5.40
2022-08-19T21:12:12.682Z,4.60
2022-08-19T21:14:42.714Z,2.20
2022-08-19T21:17:09.675Z,2.60
2022-08-19T21:19:39.750Z,2.42
2022-08-19T21:22:06.796Z,2.83
2022-08-19T21:24:36.197Z,2.90
2022-08-19T21:27:03.275Z,3.45
2022-08-19T21:29:35.939Z,3.42
2022-08-19T21:32:04.983Z,2.72
2022-08-19T21:34:31.744Z,3.17
2022-08-19T21:36:58.492Z,3.38
2022-08-19T21:39:25.329Z,4.63
2022-08-19T21:41:54.581Z,3.85
2022-08-19T21:44:26.486Z,4.55
2022-08-19T21:46:55.982Z,2.63
2022-08-19T21:49:25.187Z,4.72
2022-08-19T21:51:58.127Z,5.88
2022-08-19T21:54:25.092Z,3.15
2022-08-19T21:56:53.981Z,4.38
2022-08-19T21:59:21.919Z,7.05
2022-08-19T22:01:52.055Z,4.38
2022-08-19T22:04:28.012Z,4.90
2022-08-19T22:06:54.668Z,3.60
2022-08-19T22:09:21.363Z,3.03
2022-08-19T22:11:49.011Z,3.50
2022-08-19T22:14:15.678Z,5.57
2022-08-19T22:16:43.033Z,5.65
2022-08-19T22:19:11.051Z,3.85
2022-08-19T22:21:41.201Z,3.85
2022-08-19T22:24:08.613Z,3.75
2022-08-19T22:26:37.581Z,4.20
2022-08-19T22:29:04.325Z,4.20
2022-08-19T22:31:33.719Z,4.07
2022-08-19T22:34:01.748Z,3.85
2022-08-19T22:36:28.430Z,6.55
2022-08-19T22:38:56.330Z,6.18
2022-08-19T22:41:25.373Z,3.70
2022-08-19T22:43:54.773Z,4.85
2022-08-19T22:46:21.506Z,4.18
2022-08-19T22:48:49.485Z,3.95
2022-08-19T22:51:46.322Z,5.40
2022-08-19T22:54:13.101Z,7.25
2022-08-19T22:56:39.801Z,4.25
2022-08-19T22:59:09.734Z,5.40
2022-08-19T23:01:36.951Z,6.75
2022-08-19T23:04:05.422Z,8.10
2022-08-19T23:06:33.849Z,3.85
2022-08-19T23:09:08.220Z,6.85
2022-08-19T23:11:42.984Z,6.35
2022-08-19T23:14:13.686Z,5.03
2022-08-19T23:16:47.865Z,6.72
2022-08-19T23:19:17.417Z,5.63
2022-08-19T23:21:44.177Z,4.85
2022-08-19T23:24:11.326Z,4.63
2022-08-19T23:26:38.527Z,4.32
2022-08-19T23:29:24.371Z,5.60
2022-08-19T23:31:53.650Z,7.43
2022-08-19T23:34:20.359Z,7.82
2022-08-19T23:36:47.039Z,6.70
2022-08-19T23:39:19.634Z,6.32
2022-08-19T23:41:46.377Z,5.00
2022-08-19T23:44:15.137Z,5.22
2022-08-19T23:46:55.389Z,6.18
2022-08-19T23:49:23.262Z,6.03
2022-08-19T23:51:50.001Z,5.55
2022-08-19T23:54:16.673Z,5.03
2022-08-19T23:56:43.390Z,5.30
2022-08-19T23:59:14.010Z,6.63
